createdAt,value
2018-04-19T00:00:53.270Z,10.83
2018-04-19T00:03:21.173Z,10.50
2018-04-19T00:05:49.071Z,10.30
2018-04-19T00:08:17.157Z,10.03
2018-04-19T00:10:45.098Z,11.33
2018-04-19T00:13:13.013Z,12.10
2018-04-19T00:15:40.938Z,10.67
2018-04-19T00:18:08.874Z,10.97
2018-04-19T00:20:36.761Z,10.87
2018-04-19T00:23:04.696Z,11.30
2018-04-19T00:25:32.609Z,11.70
2018-04-19T00:28:00.522Z,10.10
2018-04-19T00:30:28.426Z,10.80
2018-04-19T00:32:56.370Z,11.37
2018-04-19T00:35:24.290Z,11.70
2018-04-19T00:37:52.259Z,10.27
2018-04-19T00:40:20.170Z,10.77
2018-04-19T00:42:48.090Z,10.63
2018-04-19T00:45:16.053Z,10.20
2018-04-19T00:47:43.949Z,11.63
2018-04-19T00:50:11.842Z,11.30
2018-04-19T00:52:45.801Z,10.20
2018-04-19T00:55:13.702Z,11.60
2018-04-19T00:57:41.590Z,10.20
2018-04-19T01:00:09.478Z,10.60
2018-04-19T01:02:37.378Z,11.20
2018-04-19T01:05:05.265Z,9.20
2018-04-19T01:07:33.196Z,11.30
2018-04-19T01:10:01.358Z,11.40
2018-04-19T01:12:29.297Z,11.20
2018-04-19T01:14:57.222Z,11.40
2018-04-19T01:17:25.133Z,11.97
2018-04-19T01:19:53.074Z,11.47
2018-04-19T01:22:20.982Z,12.33
2018-04-19T01:24:48.894Z,12.40
2018-04-19T01:27:16.793Z,12.20
2018-04-19T01:29:44.686Z,11.00
2018-04-19T01:32:12.602Z,11.77
2018-04-19T01:34:40.529Z,12.80
2018-04-19T01:37:08.498Z,11.37
2018-04-19T01:39:37.176Z,11.90
2018-04-19T01:42:05.097Z,11.20
2018-04-19T01:44:32.993Z,13.50
2018-04-19T01:47:00.926Z,14.00
2018-04-19T01:49:28.813Z,12.00
2018-04-19T01:51:56.736Z,13.77
2018-04-19T01:54:24.649Z,13.30
2018-04-19T01:56:52.533Z,14.27
2018-04-19T01:59:20.426Z,13.00
2018-04-19T02:01:48.370Z,12.80
2018-04-19T02:04:16.267Z,12.47
2018-04-19T02:06:44.205Z,15.30
2018-04-19T02:09:12.154Z,12.60
2018-04-19T02:11:40.265Z,14.40
2018-04-19T02:14:08.170Z,12.80
2018-04-19T02:16:36.086Z,11.33
2018-04-19T02:19:03.997Z,13.87
2018-04-19T02:21:31.915Z,13.30
2018-04-19T02:23:59.815Z,12.80
2018-04-19T02:26:27.725Z,14.47
2018-04-19T02:28:55.642Z,15.13
2018-04-19T02:31:23.541Z,16.17
2018-04-19T02:33:51.436Z,14.37
2018-04-19T02:36:19.365Z,15.33
2018-04-19T02:38:47.295Z,14.93
2018-04-19T02:41:15.199Z,12.70
2018-04-19T02:43:43.111Z,14.17
2018-04-19T02:46:11.002Z,12.40
2018-04-19T02:48:38.906Z,13.00
2018-04-19T02:51:06.839Z,14.20
2018-04-19T02:53:34.738Z,14.77
2018-04-19T02:56:02.658Z,13.13
2018-04-19T02:58:30.580Z,13.23
2018-04-19T03:00:58.483Z,13.50
2018-04-19T03:03:26.407Z,14.60
2018-04-19T03:05:54.327Z,14.07
2018-04-19T03:08:22.229Z,12.77
2018-04-19T03:10:50.359Z,14.47
2018-04-19T03:13:18.502Z,13.37
2018-04-19T03:15:46.390Z,14.63
2018-04-19T03:18:14.306Z,14.53
2018-04-19T03:20:42.216Z,14.43
2018-04-19T03:23:10.109Z,15.67
2018-04-19T03:25:38.065Z,14.77
2018-04-19T03:28:06.002Z,15.57
2018-04-19T03:30:33.916Z,15.27
2018-04-19T03:33:01.853Z,15.50
2018-04-19T03:35:29.782Z,16.47
2018-04-19T03:37:57.689Z,15.73
2018-04-19T03:40:25.590Z,15.07
2018-04-19T03:42:53.494Z,14.17
2018-04-19T03:45:21.410Z,14.27
2018-04-19T03:47:49.346Z,16.03
2018-04-19T03:50:17.253Z,13.57
2018-04-19T03:52:45.168Z,13.30
2018-04-19T03:55:13.059Z,15.50
2018-04-19T03:57:40.978Z,14.30
2018-04-19T04:00:08.889Z,15.40
2018-04-19T04:02:36.822Z,15.47
2018-04-19T04:05:04.744Z,14.10
2018-04-19T04:07:32.621Z,12.80
2018-04-19T04:10:00.545Z,14.77
2018-04-19T04:12:28.470Z,12.97
2018-04-19T04:14:56.618Z,14.73
2018-04-19T04:20:28.521Z,15.67
2018-04-19T04:23:02.618Z,15.73
2018-04-19T04:25:30.522Z,15.23
2018-04-19T04:27:58.474Z,15.27
2018-04-19T04:30:26.535Z,12.73
2018-04-19T04:32:54.445Z,14.13
2018-04-19T04:35:22.452Z,14.10
2018-04-19T04:37:50.289Z,15.03
2018-04-19T04:40:18.200Z,15.47
2018-04-19T04:42:46.097Z,13.37
2018-04-19T04:45:14.030Z,14.70
2018-04-19T04:47:42.005Z,14.80
2018-04-19T04:50:09.922Z,11.93
2018-04-19T04:52:37.830Z,13.90
2018-04-19T04:55:05.713Z,13.00
2018-04-19T04:57:33.634Z,12.97
2018-04-19T05:00:01.573Z,12.30
2018-04-19T05:02:29.469Z,12.27
2018-04-19T05:04:57.397Z,13.43
2018-04-19T05:07:25.426Z,12.73
2018-04-19T05:09:53.318Z,13.47
2018-04-19T05:12:21.221Z,14.57
2018-04-19T05:14:49.122Z,13.53
2018-04-19T05:17:17.256Z,12.53
2018-04-19T05:19:52.134Z,12.60
2018-04-19T05:22:20.049Z,13.10
2018-04-19T05:24:47.950Z,12.13
2018-04-19T05:27:15.857Z,13.40
2018-04-19T05:29:43.771Z,12.10
2018-04-19T05:32:11.681Z,12.20
2018-04-19T05:34:39.573Z,11.67
2018-04-19T05:37:07.993Z,12.40
2018-04-19T05:39:35.882Z,13.40
2018-04-19T05:42:03.785Z,12.37
2018-04-19T05:44:31.678Z,11.63
2018-04-19T05:46:59.586Z,14.43
2018-04-19T05:49:27.522Z,11.37
2018-04-19T05:51:55.409Z,12.90
2018-04-19T05:54:23.376Z,11.87
2018-04-19T05:56:51.269Z,12.30
2018-04-19T05:59:19.221Z,12.50
2018-04-19T06:01:47.133Z,12.40
2018-04-19T06:04:15.018Z,13.67
2018-04-19T06:06:42.982Z,13.03
2018-04-19T06:09:10.863Z,12.50
2018-04-19T06:11:38.757Z,11.83
2018-04-19T06:14:06.650Z,12.50
2018-04-19T06:16:34.598Z,12.30
2018-04-19T06:19:02.734Z,12.27
2018-04-19T06:21:30.629Z,12.90
2018-04-19T06:23:58.557Z,11.63
2018-04-19T06:26:26.463Z,12.23
2018-04-19T06:28:54.418Z,11.57
2018-04-19T06:31:22.654Z,12.47
2018-04-19T06:33:50.609Z,11.90
2018-04-19T06:36:18.513Z,12.70
2018-04-19T06:38:46.418Z,12.47
2018-04-19T06:41:14.353Z,11.60
2018-04-19T06:43:42.258Z,13.30
2018-04-19T06:46:10.173Z,11.20
2018-04-19T06:48:38.111Z,12.30
2018-04-19T06:51:06.009Z,11.87
2018-04-19T06:53:33.906Z,11.50
2018-04-19T06:56:01.833Z,12.60
2018-04-19T06:58:29.769Z,11.87
2018-04-19T07:00:57.686Z,11.70
2018-04-19T07:03:25.621Z,12.57
2018-04-19T07:05:53.526Z,11.90
2018-04-19T07:08:21.426Z,11.67
2018-04-19T07:10:49.366Z,11.93
2018-04-19T07:13:17.265Z,14.73
2018-04-19T07:15:45.178Z,13.90
2018-04-19T07:18:13.074Z,11.50
2018-04-19T07:20:41.169Z,11.50
2018-04-19T07:23:09.058Z,12.10
2018-04-19T07:25:36.966Z,13.00
2018-04-19T07:28:04.885Z,11.70
2018-04-19T07:30:32.786Z,11.13
2018-04-19T07:33:00.697Z,12.40
2018-04-19T07:35:28.622Z,11.43
2018-04-19T07:37:56.567Z,12.77
2018-04-19T07:40:24.546Z,11.60
2018-04-19T07:42:52.463Z,11.87
2018-04-19T07:45:20.366Z,13.23
2018-04-19T07:47:48.281Z,13.43
2018-04-19T07:50:16.214Z,12.30
2018-04-19T07:52:44.114Z,12.80
2018-04-19T07:55:12.014Z,13.63
2018-04-19T07:57:39.997Z,12.50
2018-04-19T08:00:07.894Z,13.50
2018-04-19T08:02:35.789Z,13.57
2018-04-19T08:05:03.682Z,12.20
2018-04-19T08:07:31.594Z,11.40
2018-04-19T08:09:59.513Z,11.97
2018-04-19T08:12:27.414Z,13.00
2018-04-19T08:14:55.339Z,13.07
2018-04-19T08:17:23.258Z,11.90
2018-04-19T08:19:51.146Z,11.80
2018-04-19T08:22:19.291Z,13.50
2018-04-19T08:24:47.217Z,12.60
2018-04-19T08:27:15.121Z,13.27
2018-04-19T08:29:43.042Z,12.63
2018-04-19T08:32:10.977Z,15.27
2018-04-19T08:34:39.496Z,13.37
2018-04-19T08:37:07.413Z,13.27
2018-04-19T08:39:35.306Z,12.67
2018-04-19T08:42:03.198Z,14.47
2018-04-19T08:44:31.100Z,15.23
2018-04-19T08:46:58.984Z,14.37
2018-04-19T08:49:26.886Z,14.23
2018-04-19T08:51:54.793Z,14.47
2018-04-19T08:54:22.682Z,13.33
2018-04-19T08:56:50.571Z,14.00
2018-04-19T08:59:18.475Z,15.43
2018-04-19T09:01:46.349Z,14.80
2018-04-19T09:04:14.249Z,15.30
2018-04-19T09:06:42.137Z,12.43
2018-04-19T09:09:10.022Z,13.60
2018-04-19T09:11:37.917Z,14.13
2018-04-19T09:14:05.824Z,13.07
2018-04-19T09:16:33.746Z,11.60
2018-04-19T09:19:01.642Z,13.70
2018-04-19T09:21:29.548Z,15.20
2018-04-19T09:23:57.706Z,13.87
2018-04-19T09:26:25.608Z,15.07
2018-04-19T09:28:53.554Z,14.10
2018-04-19T09:31:21.463Z,14.43
2018-04-19T09:33:49.375Z,17.00
2018-04-19T09:36:17.422Z,14.83
2018-04-19T09:38:45.322Z,15.97
2018-04-19T09:41:13.247Z,16.67
2018-04-19T09:43:41.169Z,15.47
2018-04-19T09:46:09.071Z,15.57
2018-04-19T09:48:36.976Z,15.73
2018-04-19T09:51:04.881Z,15.90
2018-04-19T09:53:32.789Z,14.40
2018-04-19T09:56:00.718Z,16.50
2018-04-19T09:58:35.784Z,16.80
2018-04-19T10:01:08.437Z,18.70
2018-04-19T10:03:42.418Z,16.23
2018-04-19T10:06:10.310Z,17.00
2018-04-19T10:08:38.206Z,15.77
2018-04-19T10:11:06.094Z,17.50
2018-04-19T10:13:33.998Z,19.63
2018-04-19T10:16:01.932Z,19.60
2018-04-19T10:18:29.829Z,19.73
2018-04-19T10:20:57.723Z,18.20
2018-04-19T10:23:25.626Z,22.13
2018-04-19T10:25:53.678Z,19.10
2018-04-19T10:28:21.608Z,18.40
2018-04-19T10:30:49.529Z,17.83
2018-04-19T10:33:17.418Z,20.27
2018-04-19T10:35:45.320Z,17.80
2018-04-19T10:38:13.570Z,21.90
2018-04-19T10:40:41.477Z,19.50
2018-04-19T10:43:09.421Z,17.30
2018-04-19T10:45:37.289Z,17.37
2018-04-19T10:48:05.194Z,17.70
2018-04-19T10:50:33.121Z,18.23
2018-04-19T10:53:01.013Z,14.67
2018-04-19T10:55:28.911Z,18.43
2018-04-19T10:57:56.817Z,17.60
2018-04-19T11:00:24.698Z,15.53
2018-04-19T11:02:52.649Z,15.03
2018-04-19T11:05:20.545Z,15.20
2018-04-19T11:07:48.486Z,15.53
2018-04-19T11:10:16.457Z,16.00
2018-04-19T11:12:44.310Z,18.37
2018-04-19T11:15:12.211Z,16.17
2018-04-19T11:17:40.129Z,14.80
2018-04-19T11:20:08.047Z,15.67
2018-04-19T11:22:36.031Z,15.77
2018-04-19T11:25:04.020Z,14.90
2018-04-19T11:27:32.094Z,16.17
2018-04-19T11:30:00.087Z,15.27
2018-04-19T11:32:28.026Z,13.40
2018-04-19T11:34:55.937Z,14.60
2018-04-19T11:37:23.893Z,13.43
2018-04-19T11:39:51.849Z,13.30
2018-04-19T11:42:19.805Z,13.70
2018-04-19T11:44:47.699Z,13.20
2018-04-19T11:47:15.867Z,13.30
2018-04-19T11:49:43.871Z,11.93
2018-04-19T11:52:11.766Z,11.60
2018-04-19T11:54:39.670Z,12.67
2018-04-19T11:57:07.647Z,11.87
2018-04-19T11:59:35.668Z,12.70
2018-04-19T12:02:03.593Z,13.70
2018-04-19T12:04:31.517Z,13.13
2018-04-19T12:06:59.474Z,13.30
2018-04-19T12:09:27.421Z,13.77
2018-04-19T12:11:55.401Z,10.83
2018-04-19T12:14:23.353Z,10.90
2018-04-19T12:16:51.290Z,10.80
2018-04-19T12:19:19.209Z,9.97
2018-04-19T12:21:47.097Z,10.77
2018-04-19T12:24:15.044Z,9.77
2018-04-19T12:26:43.083Z,9.17
2018-04-19T12:29:11.341Z,9.13
2018-04-19T12:31:39.241Z,8.70
2018-04-19T12:34:07.214Z,8.93
2018-04-19T12:36:35.222Z,9.77
2018-04-19T12:39:03.186Z,8.70
2018-04-19T12:41:31.151Z,9.77
2018-04-19T12:43:59.083Z,9.47
2018-04-19T12:46:27.016Z,8.40
2018-04-19T12:48:54.913Z,9.20
2018-04-19T12:51:22.877Z,7.40
2018-04-19T12:53:50.787Z,7.47
2018-04-19T12:56:18.718Z,7.97
2018-04-19T12:58:46.627Z,7.67
2018-04-19T13:01:14.530Z,7.30
2018-04-19T13:03:42.483Z,9.50
2018-04-19T13:06:10.412Z,9.30
2018-04-19T13:08:38.346Z,8.73
2018-04-19T13:11:06.238Z,8.37
2018-04-19T13:13:34.181Z,8.00
2018-04-19T13:16:02.107Z,7.30
2018-04-19T13:18:30.041Z,7.87
2018-04-19T13:20:58.048Z,7.10
2018-04-19T13:23:25.975Z,8.17
2018-04-19T13:25:53.911Z,8.47
2018-04-19T13:28:21.799Z,7.50
2018-04-19T13:30:49.877Z,10.47
2018-04-19T13:33:17.787Z,7.37
2018-04-19T13:35:45.685Z,7.47
2018-04-19T13:38:13.605Z,9.17
2018-04-19T13:40:41.518Z,6.87
2018-04-19T13:43:09.730Z,8.23
2018-04-19T13:45:37.671Z,8.13
2018-04-19T13:48:05.586Z,7.93
2018-04-19T13:50:33.518Z,7.50
2018-04-19T13:53:01.486Z,7.60
2018-04-19T13:55:29.498Z,7.90
2018-04-19T13:57:57.442Z,7.93
2018-04-19T14:00:25.339Z,8.10
2018-04-19T14:02:53.304Z,8.50
2018-04-19T14:05:21.273Z,6.37
2018-04-19T14:07:49.221Z,7.97
2018-04-19T14:10:17.150Z,6.50
2018-04-19T14:12:45.084Z,7.70
2018-04-19T14:15:13.043Z,7.63
2018-04-19T14:17:41.027Z,6.17
2018-04-19T14:20:08.927Z,6.70
2018-04-19T14:22:36.865Z,6.07
2018-04-19T14:25:04.818Z,6.83
2018-04-19T14:27:33.469Z,7.50
2018-04-19T14:30:01.376Z,7.83
2018-04-19T14:32:29.518Z,7.53
2018-04-19T14:34:57.430Z,6.10
2018-04-19T14:37:25.330Z,7.50
2018-04-19T14:39:53.226Z,7.07
2018-04-19T14:42:21.150Z,7.17
2018-04-19T14:44:49.298Z,6.10
2018-04-19T14:47:17.246Z,6.63
2018-04-19T14:49:45.266Z,7.53
2018-04-19T14:52:13.201Z,6.63
2018-04-19T14:54:41.137Z,5.97
2018-04-19T14:57:09.042Z,6.63
2018-04-19T14:59:36.982Z,6.23
2018-04-19T15:02:05.097Z,6.60
2018-04-19T15:04:33.014Z,6.97
2018-04-19T15:07:00.996Z,6.13
2018-04-19T15:09:28.941Z,6.83
2018-04-19T15:11:56.866Z,5.80
2018-04-19T15:14:24.807Z,6.60
2018-04-19T15:16:52.753Z,6.00
2018-04-19T15:19:20.665Z,5.93
2018-04-19T15:21:48.569Z,5.90
2018-04-19T15:24:16.498Z,5.57
2018-04-19T15:26:44.442Z,5.83
2018-04-19T15:29:12.369Z,6.53
2018-04-19T15:31:40.348Z,5.67
2018-04-19T15:34:08.502Z,5.77
2018-04-19T15:36:36.420Z,8.27
2018-04-19T15:39:05.307Z,7.30
2018-04-19T15:41:33.249Z,5.83
2018-04-19T15:44:01.184Z,5.47
2018-04-19T15:46:29.314Z,6.13
2018-04-19T15:48:57.609Z,6.40
2018-04-19T15:51:25.607Z,5.80
2018-04-19T15:53:54.371Z,5.43
2018-04-19T15:56:22.306Z,5.50
2018-04-19T15:58:50.281Z,5.70
2018-04-19T16:01:18.274Z,5.73
2018-04-19T16:03:46.186Z,6.17
2018-04-19T16:06:14.134Z,5.77
2018-04-19T16:08:42.057Z,4.90
2018-04-19T16:11:09.975Z,4.47
2018-04-19T16:13:37.893Z,4.87
2018-04-19T16:16:05.857Z,5.83
2018-04-19T16:18:33.777Z,5.40
2018-04-19T16:21:01.720Z,5.60
2018-04-19T16:23:29.643Z,4.77
2018-04-19T16:25:57.561Z,5.17
2018-04-19T16:28:25.511Z,4.47
2018-04-19T16:30:53.462Z,5.47
2018-04-19T16:33:21.378Z,4.43
2018-04-19T16:35:49.808Z,5.10
2018-04-19T16:38:17.701Z,4.50
2018-04-19T16:40:45.626Z,5.10
2018-04-19T16:43:13.533Z,4.97
2018-04-19T16:45:41.451Z,5.03
2018-04-19T16:48:09.430Z,5.40
2018-04-19T16:50:37.321Z,4.73
2018-04-19T16:53:05.475Z,4.53
2018-04-19T16:55:33.376Z,5.40
2018-04-19T16:58:01.289Z,4.60
2018-04-19T17:00:29.195Z,5.00
2018-04-19T17:02:57.098Z,4.43
2018-04-19T17:05:24.986Z,5.03
2018-04-19T17:07:52.886Z,5.37
2018-04-19T17:10:20.827Z,4.20
2018-04-19T17:12:48.768Z,4.40
2018-04-19T17:15:16.721Z,5.23
2018-04-19T17:17:44.609Z,4.13
2018-04-19T17:20:12.578Z,6.10
2018-04-19T17:22:40.493Z,5.00
2018-04-19T17:25:08.433Z,4.77
2018-04-19T17:27:36.410Z,5.13
2018-04-19T17:30:04.320Z,5.30
2018-04-19T17:32:32.282Z,4.70
2018-04-19T17:35:00.208Z,5.03
2018-04-19T17:37:28.584Z,4.50
2018-04-19T17:39:56.527Z,4.63
2018-04-19T17:42:24.437Z,4.93
2018-04-19T17:44:52.390Z,4.73
2018-04-19T17:47:20.286Z,5.33
2018-04-19T17:49:48.277Z,4.60
2018-04-19T17:52:16.215Z,5.50
2018-04-19T17:54:44.174Z,4.70
2018-04-19T17:57:12.089Z,5.07
2018-04-19T17:59:40.002Z,4.90
2018-04-19T18:02:07.898Z,4.30
2018-04-19T18:04:35.839Z,4.20
2018-04-19T18:07:03.797Z,4.20
2018-04-19T18:09:31.701Z,4.20
2018-04-19T18:11:59.611Z,5.33
2018-04-19T18:14:27.542Z,5.07
2018-04-19T18:16:55.473Z,4.60
2018-04-19T18:19:23.338Z,4.87
2018-04-19T18:21:51.225Z,4.83
2018-04-19T18:24:19.122Z,5.40
2018-04-19T18:26:47.036Z,5.97
2018-04-19T18:29:14.941Z,5.83
2018-04-19T18:31:42.881Z,6.00
2018-04-19T18:34:10.846Z,6.47
2018-04-19T18:36:38.798Z,6.37
2018-04-19T18:39:06.702Z,6.13
2018-04-19T18:41:34.826Z,5.93
2018-04-19T18:44:02.758Z,6.90
2018-04-19T18:46:30.646Z,5.93
2018-04-19T18:48:58.649Z,5.70
2018-04-19T18:51:26.609Z,6.07
2018-04-19T18:53:54.614Z,4.90
2018-04-19T18:56:22.536Z,6.10
2018-04-19T18:58:50.455Z,5.73
2018-04-19T19:01:18.390Z,6.27
2018-04-19T19:03:46.320Z,5.70
2018-04-19T19:06:14.253Z,5.57
2018-04-19T19:08:42.185Z,5.90
2018-04-19T19:11:10.141Z,6.20
2018-04-19T19:13:38.065Z,5.53
2018-04-19T19:16:06.833Z,5.93
2018-04-19T19:18:40.825Z,6.33
2018-04-19T19:21:08.782Z,5.90
2018-04-19T19:23:36.709Z,6.20
2018-04-19T19:26:04.615Z,5.93
2018-04-19T19:28:32.514Z,6.17
2018-04-19T19:31:00.461Z,6.23
2018-04-19T19:33:28.440Z,6.30
2018-04-19T19:35:56.370Z,5.97
2018-04-19T19:38:24.333Z,6.80
2018-04-19T19:40:52.505Z,6.60
2018-04-19T19:43:20.444Z,6.83
2018-04-19T19:45:48.374Z,7.90
2018-04-19T19:48:16.301Z,7.93
2018-04-19T19:50:44.233Z,7.80
2018-04-19T19:53:12.200Z,8.70
2018-04-19T19:55:40.121Z,8.07
2018-04-19T19:58:08.070Z,8.00
2018-04-19T20:00:36.022Z,7.20
2018-04-19T20:03:03.913Z,8.97
2018-04-19T20:05:31.833Z,7.80
2018-04-19T20:07:59.754Z,8.40
2018-04-19T20:10:27.710Z,7.90
2018-04-19T20:12:55.680Z,8.67
2018-04-19T20:15:23.561Z,7.80
2018-04-19T20:17:51.473Z,9.87
2018-04-19T20:20:19.944Z,10.23
2018-04-19T20:22:48.246Z,10.33
2018-04-19T20:25:16.186Z,9.70
2018-04-19T20:27:44.519Z,9.97
2018-04-19T20:30:13.347Z,9.23
2018-04-19T20:32:41.721Z,9.17
2018-04-19T20:35:09.693Z,9.40
2018-04-19T20:37:37.607Z,9.60
2018-04-19T20:40:05.565Z,8.97
2018-04-19T20:42:33.718Z,9.03
2018-04-19T20:45:01.643Z,9.13
2018-04-19T20:47:29.542Z,9.43
2018-04-19T20:49:57.473Z,8.70
2018-04-19T20:52:25.413Z,8.47
2018-04-19T20:54:53.427Z,8.77
2018-04-19T20:57:21.335Z,8.50
2018-04-19T20:59:49.225Z,9.50
2018-04-19T21:02:17.129Z,7.70
2018-04-19T21:04:45.103Z,9.53
2018-04-19T21:07:13.050Z,8.77
2018-04-19T21:09:40.975Z,8.50
2018-04-19T21:12:08.910Z,9.00
2018-04-19T21:14:36.841Z,9.00
2018-04-19T21:17:04.794Z,9.27
2018-04-19T21:19:32.716Z,8.63
2018-04-19T21:22:00.662Z,9.20
2018-04-19T21:24:28.606Z,8.50
2018-04-19T21:26:56.550Z,8.77
2018-04-19T21:29:24.494Z,9.10
2018-04-19T21:31:52.441Z,9.07
2018-04-19T21:34:20.358Z,9.07
2018-04-19T21:36:48.308Z,9.80
2018-04-19T21:39:16.261Z,8.20
2018-04-19T21:41:44.219Z,8.07
2018-04-19T21:44:12.305Z,8.10
2018-04-19T21:46:40.238Z,9.00
2018-04-19T21:49:08.191Z,8.33
2018-04-19T21:51:36.145Z,8.70
2018-04-19T21:54:04.072Z,8.37
2018-04-19T21:56:32.014Z,9.00
2018-04-19T21:58:59.969Z,9.20
2018-04-19T22:01:27.875Z,8.67
2018-04-19T22:03:55.781Z,9.67
2018-04-19T22:06:23.696Z,9.40
2018-04-19T22:08:51.698Z,8.80
2018-04-19T22:11:19.674Z,8.33
2018-04-19T22:13:47.590Z,8.50
2018-04-19T22:16:15.509Z,9.20
2018-04-19T22:18:43.409Z,9.47
2018-04-19T22:21:11.313Z,9.00
2018-04-19T22:23:39.237Z,9.07
2018-04-19T22:26:07.190Z,9.47
2018-04-19T22:28:35.138Z,9.27
2018-04-19T22:31:03.048Z,8.00
2018-04-19T22:33:30.956Z,9.13
2018-04-19T22:35:58.874Z,9.77
2018-04-19T22:38:26.777Z,9.70
2018-04-19T22:40:54.719Z,9.60
2018-04-19T22:43:22.666Z,10.60
2018-04-19T22:45:50.880Z,9.10
2018-04-19T22:48:18.826Z,9.83
2018-04-19T22:50:46.846Z,9.60
2018-04-19T22:53:14.750Z,8.57
2018-04-19T22:55:43.310Z,9.53
2018-04-19T22:58:11.269Z,9.07
2018-04-19T23:00:39.207Z,8.90
2018-04-19T23:03:07.193Z,9.50
2018-04-19T23:05:35.129Z,10.03
2018-04-19T23:08:03.061Z,9.63
2018-04-19T23:10:30.991Z,9.03
2018-04-19T23:12:58.889Z,8.90
2018-04-19T23:15:26.801Z,9.67
2018-04-19T23:17:54.714Z,9.30
2018-04-19T23:20:22.680Z,9.53
2018-04-19T23:22:50.647Z,9.40
2018-04-19T23:25:18.573Z,9.90
2018-04-19T23:27:46.514Z,9.30
2018-04-19T23:30:14.434Z,9.77
2018-04-19T23:32:42.409Z,10.27
2018-04-19T23:35:10.305Z,10.10
2018-04-19T23:37:38.266Z,10.50
2018-04-19T23:40:06.199Z,10.00
2018-04-19T23:42:34.117Z,10.70
2018-04-19T23:45:02.036Z,10.00
2018-04-19T23:47:30.190Z,10.70
2018-04-19T23:49:58.086Z,10.50
2018-04-19T23:52:26.017Z,10.67
2018-04-19T23:54:53.926Z,9.90
2018-04-19T23:57:21.870Z,10.30
2018-04-19T23:59:49.807Z,9.67
